Time;durP1;ratioP1;P1;durP2;ratioP2;P2;SDS_P1;SDS_P2;PMS_P1;PMS_P2;Temp;Humidity;BMP_temperature;BMP_pressure;BME280_temperature;BME280_humidity;BME280_pressure;Samples;Min_cycle;Max_cycle;Signal;HPM_P1;HPM_P2
2021/12/02 00:00:09;;;;;;;1.80;1.70;;;6.90;99.90;;;;;;5112865;28;20027;-61
2021/12/02 00:02:37;;;;;;;2.03;1.92;;;6.90;99.90;;;;;;5113326;28;20110;-61
2021/12/02 00:05:03;;;;;;;2.45;2.28;;;6.90;99.90;;;;;;5112811;28;20023;-61
2021/12/02 00:07:29;;;;;;;2.20;2.10;;;6.80;99.90;;;;;;5113484;28;20103;-61
2021/12/02 00:09:55;;;;;;;2.40;2.30;;;6.80;99.90;;;;;;5112805;28;20437;-61
2021/12/02 00:12:21;;;;;;;2.00;1.90;;;6.80;99.90;;;;;;5108299;28;20465;-61
2021/12/02 00:14:48;;;;;;;2.10;2.00;;;6.80;99.90;;;;;;5106243;28;20036;-61
2021/12/02 00:17:26;;;;;;;1.70;1.60;;;6.80;99.90;;;;;;5093446;28;20093;-61
2021/12/02 00:23:24;;;;;;;2.05;1.95;;;6.80;99.90;;;;;;5099895;28;20498;-61
2021/12/02 00:25:53;;;;;;;3.42;2.67;;;6.80;99.90;;;;;;5092266;28;20036;-61
2021/12/02 00:28:18;;;;;;;1.90;1.80;;;6.90;99.90;;;;;;5103463;28;20091;-60
2021/12/02 00:30:44;;;;;;;2.10;2.00;;;6.80;99.90;;;;;;5098207;28;20483;-61
2021/12/02 00:33:11;;;;;;;1.90;1.80;;;6.80;99.90;;;;;;5102237;28;20033;-60
2021/12/02 00:35:37;;;;;;;1.80;1.70;;;6.80;99.90;;;;;;5090489;28;20020;-60
2021/12/02 00:38:03;;;;;;;1.75;1.65;;;6.80;99.90;;;;;;5098089;28;20031;-60
2021/12/02 00:40:32;;;;;;;3.47;1.90;;;6.70;99.90;;;;;;5113921;28;20020;-61
2021/12/02 00:42:59;;;;;;;2.03;1.92;;;6.60;99.90;;;;;;5113239;28;20027;-60
2021/12/02 00:45:26;;;;;;;2.03;1.92;;;6.60;99.90;;;;;;5112423;28;20027;-60
2021/12/02 00:47:52;;;;;;;2.15;2.05;;;6.60;99.90;;;;;;5111291;28;20482;-61
2021/12/02 00:50:18;;;;;;;1.90;1.80;;;6.50;99.90;;;;;;5104622;28;20036;-61
2021/12/02 00:52:45;;;;;;;2.33;2.10;;;6.40;99.90;;;;;;5091546;28;20107;-61
2021/12/02 00:55:11;;;;;;;2.15;2.05;;;6.30;99.90;;;;;;5093009;28;20051;-61
2021/12/02 00:57:39;;;;;;;1.90;1.80;;;6.20;99.90;;;;;;5092427;28;20043;-61
2021/12/02 01:00:06;;;;;;;1.92;1.83;;;6.20;99.90;;;;;;5092428;28;20032;-61
2021/12/02 01:02:37;;;;;;;2.22;2.13;;;6.10;99.90;;;;;;5093154;28;20540;-61
2021/12/02 01:05:03;;;;;;;2.22;2.03;;;6.20;99.90;;;;;;5092710;28;20023;-61
2021/12/02 01:07:29;;;;;;;1.90;1.80;;;6.20;99.90;;;;;;5092531;28;20031;-61
2021/12/02 01:09:55;;;;;;;2.67;2.20;;;6.20;99.90;;;;;;5092093;28;20038;-61
2021/12/02 01:12:22;;;;;;;2.03;1.92;;;6.10;99.90;;;;;;5092829;28;20395;-61
2021/12/02 01:14:48;;;;;;;2.10;2.00;;;6.10;99.90;;;;;;5092692;28;20035;-61
2021/12/02 01:17:13;;;;;;;1.92;1.83;;;6.20;99.90;;;;;;5092466;28;20028;-61
2021/12/02 01:19:39;;;;;;;2.65;2.28;;;6.20;99.90;;;;;;5092504;28;20030;-61
2021/12/02 01:22:05;;;;;;;2.15;2.05;;;6.20;99.90;;;;;;5092181;28;20024;-61
2021/12/02 01:24:33;;;;;;;3.17;1.92;;;6.20;99.90;;;;;;5091582;28;20077;-60
2021/12/02 01:27:02;;;;;;;2.05;1.95;;;6.20;99.90;;;;;;5096784;28;20023;-61
2021/12/02 01:29:27;;;;;;;2.33;2.22;;;6.20;99.90;;;;;;5112747;28;20355;-61
2021/12/02 01:32:04;;;;;;;2.10;1.90;;;6.10;99.90;;;;;;5112617;28;20035;-61
2021/12/02 01:34:31;;;;;;;1.95;1.85;;;6.20;99.90;;;;;;5094017;28;20055;-61
2021/12/02 01:36:57;;;;;;;2.97;2.05;;;6.20;99.90;;;;;;5091163;28;20474;-61
2021/12/02 01:39:24;;;;;;;2.17;2.08;;;6.20;99.90;;;;;;5099780;28;20050;-61
2021/12/02 01:41:53;;;;;;;2.10;2.00;;;6.30;99.90;;;;;;5112396;28;20111;-61
2021/12/02 01:44:20;;;;;;;1.98;1.88;;;6.20;99.90;;;;;;5101064;28;20165;-61
2021/12/02 01:46:55;;;;;;;2.25;2.15;;;6.30;99.90;;;;;;5091654;28;20672;-61
2021/12/02 01:49:23;;;;;;;2.42;2.00;;;6.40;99.90;;;;;;5092263;28;20032;-61
2021/12/02 01:51:52;;;;;;;1.95;1.90;;;6.50;99.90;;;;;;5092071;28;20039;-61
2021/12/02 01:54:20;;;;;;;4.28;2.55;;;6.50;99.90;;;;;;5091501;28;20028;-61
2021/12/02 01:56:51;;;;;;;2.25;2.15;;;6.50;99.90;;;;;;5102782;28;20020;-61
2021/12/02 01:59:18;;;;;;;2.30;2.15;;;6.50;99.90;;;;;;5109451;28;20067;-61
2021/12/02 02:01:47;;;;;;;1.90;1.80;;;6.50;99.90;;;;;;5109456;28;20058;-61
2021/12/02 02:04:14;;;;;;;2.00;1.90;;;6.50;99.90;;;;;;5109574;28;20023;-61
2021/12/02 02:06:52;;;;;;;1.80;1.70;;;6.40;99.90;;;;;;5109514;28;20020;-62
2021/12/02 02:09:18;;;;;;;1.88;1.77;;;6.40;99.90;;;;;;5111871;28;20023;-60
2021/12/02 02:11:44;;;;;;;2.22;2.13;;;6.40;99.90;;;;;;5110925;28;20466;-61
2021/12/02 02:14:10;;;;;;;3.03;2.28;;;6.50;99.90;;;;;;5110364;28;20100;-61
2021/12/02 02:16:37;;;;;;;1.95;1.85;;;6.40;99.90;;;;;;5110340;28;20028;-60
2021/12/02 02:19:05;;;;;;;1.90;1.80;;;6.50;99.90;;;;;;5111673;28;20049;-61
2021/12/02 02:21:35;;;;;;;2.92;2.20;;;6.50;99.90;;;;;;5112033;28;20016;-61
2021/12/02 02:24:01;;;;;;;2.20;2.10;;;6.50;99.90;;;;;;5111702;28;20020;-61
2021/12/02 02:26:36;;;;;;;2.08;1.90;;;6.60;99.90;;;;;;5109876;28;20250;-61
2021/12/02 02:29:04;;;;;;;2.60;2.40;;;6.60;99.90;;;;;;5111525;28;20405;-61
2021/12/02 02:31:32;;;;;;;1.98;1.88;;;6.70;99.90;;;;;;5112089;28;20020;-61
2021/12/02 02:33:59;;;;;;;2.90;2.03;;;6.50;99.90;;;;;;5090873;28;20591;-61
2021/12/02 02:36:28;;;;;;;3.08;1.90;;;6.60;99.90;;;;;;5091231;28;20024;-61
2021/12/02 02:39:02;;;;;;;1.92;1.83;;;6.60;99.90;;;;;;5091024;28;20032;-61
2021/12/02 02:41:36;;;;;;;1.90;1.80;;;6.50;99.90;;;;;;5106692;28;20085;-60
2021/12/02 02:44:03;;;;;;;2.38;2.20;;;6.50;99.90;;;;;;5110960;28;20580;-60
2021/12/02 02:46:30;;;;;;;2.30;2.13;;;6.40;99.90;;;;;;5101547;28;20023;-61
2021/12/02 02:48:56;;;;;;;1.90;1.80;;;6.40;99.90;;;;;;5091206;28;20081;-61
2021/12/02 02:51:23;;;;;;;2.20;2.10;;;6.40;99.90;;;;;;5090186;28;20371;-61
2021/12/02 02:53:51;;;;;;;2.10;2.00;;;6.40;99.90;;;;;;5106101;28;20493;-61
2021/12/02 02:56:19;;;;;;;2.45;1.85;;;6.40;99.90;;;;;;5095631;28;20043;-61
2021/12/02 02:58:55;;;;;;;1.90;1.80;;;6.50;99.90;;;;;;5089117;28;20031;-61
2021/12/02 03:04:15;;;;;;;1.83;1.77;;;6.60;99.90;;;;;;5091403;28;20032;-60
2021/12/02 03:09:24;;;;;;;2.55;2.35;;;6.60;99.90;;;;;;5114323;28;20027;-61
2021/12/02 03:11:54;;;;;;;2.30;2.15;;;6.60;99.90;;;;;;5115489;28;20039;-61
2021/12/02 03:14:28;;;;;;;2.05;1.95;;;6.60;99.90;;;;;;5114101;28;20514;-60
2021/12/02 03:16:54;;;;;;;2.20;2.10;;;6.60;99.90;;;;;;5115168;28;20055;-60
2021/12/02 03:19:26;;;;;;;2.00;1.90;;;6.60;99.90;;;;;;5095240;28;20079;-60
2021/12/02 03:21:52;;;;;;;2.20;2.00;;;6.60;99.90;;;;;;5093538;28;20199;-60
2021/12/02 03:24:18;;;;;;;2.25;2.15;;;6.60;99.90;;;;;;5094319;28;20058;-60
2021/12/02 03:26:44;;;;;;;3.35;3.15;;;6.60;99.90;;;;;;5092951;28;20020;-61
2021/12/02 03:29:10;;;;;;;1.98;1.88;;;6.50;99.90;;;;;;5094630;28;20028;-60
2021/12/02 03:31:36;;;;;;;2.10;2.00;;;6.50;99.90;;;;;;5094778;28;20391;-61
2021/12/02 03:34:04;;;;;;;2.15;2.03;;;6.40;99.90;;;;;;5093236;28;20471;-61
2021/12/02 03:36:30;;;;;;;2.20;2.10;;;6.40;99.90;;;;;;5093611;28;20111;-61
2021/12/02 03:38:56;;;;;;;2.05;1.95;;;6.40;99.90;;;;;;5092295;28;20028;-61
2021/12/02 03:41:23;;;;;;;2.00;1.90;;;6.40;99.90;;;;;;5092581;28;20024;-61
2021/12/02 03:43:49;;;;;;;2.20;2.10;;;6.40;99.90;;;;;;5092320;28;20028;-61
2021/12/02 03:46:17;;;;;;;2.55;2.35;;;6.40;99.90;;;;;;5092680;28;20024;-60
2021/12/02 03:48:43;;;;;;;4.82;2.28;;;6.50;99.90;;;;;;5091963;28;20098;-60
2021/12/02 03:51:10;;;;;;;2.45;2.25;;;6.50;99.90;;;;;;5094035;28;20036;-60
2021/12/02 03:53:36;;;;;;;2.00;1.90;;;6.50;99.90;;;;;;5094967;28;20047;-61
2021/12/02 03:56:04;;;;;;;3.00;2.13;;;6.50;99.90;;;;;;5114290;28;20031;-61
2021/12/02 03:58:30;;;;;;;2.47;2.30;;;6.50;99.90;;;;;;5114527;28;20024;-61
2021/12/02 04:00:56;;;;;;;2.25;2.10;;;6.50;99.90;;;;;;5114518;28;20064;-61
2021/12/02 04:03:22;;;;;;;2.38;2.28;;;6.50;99.90;;;;;;5110572;28;20024;-61
2021/12/02 04:05:48;;;;;;;2.72;2.53;;;6.50;99.90;;;;;;5092668;28;20097;-61
2021/12/02 04:08:14;;;;;;;2.92;2.63;;;6.50;99.90;;;;;;5106605;28;20019;-61
2021/12/02 04:10:41;;;;;;;2.80;2.30;;;6.50;99.90;;;;;;5114245;28;20110;-60
2021/12/02 04:13:25;;;;;;;2.30;2.20;;;6.50;99.90;;;;;;5101734;28;20028;-61
2021/12/02 04:16:01;;;;;;;2.47;2.20;;;6.50;99.90;;;;;;5093062;28;20008;-61
2021/12/02 04:18:27;;;;;;;2.20;2.10;;;6.60;99.90;;;;;;5102586;28;20044;-61
2021/12/02 04:20:52;;;;;;;3.08;2.55;;;6.50;99.90;;;;;;5093886;28;20074;-61
2021/12/02 04:23:18;;;;;;;2.10;2.00;;;6.50;99.90;;;;;;5096377;28;20466;-61
2021/12/02 04:25:44;;;;;;;2.60;2.40;;;6.40;99.90;;;;;;5112337;28;20027;-61
2021/12/02 04:28:09;;;;;;;2.60;2.50;;;6.40;99.90;;;;;;5112993;28;20026;-60
2021/12/02 04:30:35;;;;;;;3.22;2.83;;;6.40;99.90;;;;;;5113751;28;20463;-61
2021/12/02 04:33:01;;;;;;;3.80;2.35;;;6.40;99.90;;;;;;5111309;28;20043;-61
2021/12/02 04:35:27;;;;;;;2.95;2.55;;;6.40;99.90;;;;;;5107264;28;20027;-61
2021/12/02 04:37:52;;;;;;;3.53;2.70;;;6.40;99.90;;;;;;5091018;28;20027;-61
2021/12/02 04:40:21;;;;;;;2.47;2.35;;;6.40;99.90;;;;;;5090984;28;20663;-61
2021/12/02 04:42:48;;;;;;;4.47;2.35;;;6.30;99.90;;;;;;5090784;28;20031;-61
2021/12/02 04:45:14;;;;;;;2.60;2.50;;;6.30;99.90;;;;;;5091066;28;20016;-62
2021/12/02 04:47:40;;;;;;;5.78;2.30;;;6.30;99.90;;;;;;5091258;28;20448;-61
2021/12/02 04:50:08;;;;;;;2.40;2.20;;;6.30;99.90;;;;;;5092677;28;20491;-61
2021/12/02 04:52:35;;;;;;;2.30;2.20;;;6.30;99.90;;;;;;5092929;28;20024;-61
2021/12/02 04:55:00;;;;;;;2.45;2.30;;;6.30;99.90;;;;;;5091565;28;20540;-61
2021/12/02 04:57:26;;;;;;;2.80;2.60;;;6.30;99.90;;;;;;5092733;28;20035;-61
2021/12/02 04:59:52;;;;;;;3.65;3.35;;;6.30;99.90;;;;;;5091067;28;20114;-61
2021/12/02 05:02:17;;;;;;;3.28;2.40;;;6.30;99.90;;;;;;5090203;28;20051;-61
2021/12/02 05:04:43;;;;;;;2.47;2.30;;;6.30;99.90;;;;;;5092840;28;20457;-61
2021/12/02 05:07:09;;;;;;;5.40;3.05;;;6.30;99.90;;;;;;5092643;28;20530;-61
2021/12/02 05:09:34;;;;;;;2.47;2.20;;;6.30;99.90;;;;;;5091066;28;20028;-61
2021/12/02 05:12:00;;;;;;;2.25;2.15;;;6.30;99.90;;;;;;5094175;28;20019;-61
2021/12/02 05:14:26;;;;;;;3.00;2.47;;;6.20;99.90;;;;;;5112375;28;20485;-61
2021/12/02 05:16:51;;;;;;;4.13;2.42;;;6.20;99.90;;;;;;5110133;28;20078;-60
2021/12/02 05:19:17;;;;;;;3.33;2.38;;;6.20;99.90;;;;;;5112129;28;20062;-60
2021/12/02 05:21:42;;;;;;;4.38;2.65;;;6.20;99.90;;;;;;5106967;28;20450;-61
2021/12/02 05:24:08;;;;;;;2.88;2.58;;;6.10;99.90;;;;;;5108686;28;20056;-61
2021/12/02 05:26:34;;;;;;;2.80;2.45;;;6.10;99.90;;;;;;5089736;28;20384;-61
2021/12/02 05:29:00;;;;;;;2.30;2.10;;;6.10;99.90;;;;;;5109842;28;20032;-61
2021/12/02 05:31:26;;;;;;;2.33;2.22;;;6.00;99.90;;;;;;5109835;28;20160;-61
2021/12/02 05:33:52;;;;;;;4.93;2.60;;;6.00;99.90;;;;;;5089792;28;20062;-60
2021/12/02 05:36:18;;;;;;;2.35;2.17;;;6.00;99.90;;;;;;5098055;28;20034;-61
2021/12/02 05:38:43;;;;;;;2.63;2.40;;;5.90;99.90;;;;;;5101635;28;20054;-61
2021/12/02 05:41:10;;;;;;;2.53;2.38;;;5.90;99.90;;;;;;5095909;28;20375;-61
2021/12/02 05:43:36;;;;;;;5.38;2.60;;;5.90;99.90;;;;;;5109279;28;20024;-61
2021/12/02 05:46:01;;;;;;;5.22;2.25;;;5.90;99.90;;;;;;5108783;28;20016;-61
2021/12/02 05:48:27;;;;;;;3.00;2.78;;;5.80;99.90;;;;;;5090338;28;20060;-61
2021/12/02 05:51:08;;;;;;;3.17;2.88;;;5.80;99.90;;;;;;5091485;28;20107;-61
2021/12/02 05:53:34;;;;;;;3.65;3.03;;;5.80;99.90;;;;;;5091341;28;20059;-61
2021/12/02 05:55:59;;;;;;;3.72;2.45;;;5.80;99.90;;;;;;5088254;28;20024;-61
2021/12/02 05:58:25;;;;;;;3.47;3.28;;;5.70;99.90;;;;;;5095439;28;20297;-61
2021/12/02 06:01:03;;;;;;;3.85;2.67;;;5.70;99.90;;;;;;5109910;28;20016;-61
2021/12/02 06:03:29;;;;;;;2.80;2.60;;;5.60;99.90;;;;;;5111730;28;20581;-61
2021/12/02 06:05:55;;;;;;;2.80;2.60;;;5.50;99.90;;;;;;5111412;28;20042;-61
2021/12/02 06:08:20;;;;;;;2.80;2.60;;;5.30;99.90;;;;;;5111294;28;20375;-61
2021/12/02 06:10:46;;;;;;;2.60;2.50;;;5.20;99.90;;;;;;5110202;28;20026;-61
2021/12/02 06:13:12;;;;;;;3.05;2.85;;;5.20;99.90;;;;;;5108917;28;20024;-61
2021/12/02 06:15:37;;;;;;;2.80;2.60;;;5.10;99.90;;;;;;5109342;28;20104;-61
2021/12/02 06:18:03;;;;;;;3.35;3.05;;;5.10;99.90;;;;;;5108941;28;20040;-61
2021/12/02 06:20:29;;;;;;;4.43;3.08;;;5.00;99.90;;;;;;5110755;28;20504;-61
2021/12/02 06:22:54;;;;;;;3.53;3.15;;;4.90;99.90;;;;;;5109115;28;20020;-61
2021/12/02 06:27:52;;;;;;;3.17;2.97;;;4.90;99.90;;;;;;5111870;28;20031;-61
2021/12/02 06:30:20;;;;;;;3.55;2.70;;;4.90;99.90;;;;;;5110668;28;20060;-61
2021/12/02 06:32:45;;;;;;;8.43;4.60;;;4.90;99.90;;;;;;5111844;28;20115;-61
2021/12/02 06:35:11;;;;;;;8.45;4.93;;;4.90;99.90;;;;;;5103696;28;20114;-61
2021/12/02 06:37:38;;;;;;;4.43;3.80;;;4.80;99.90;;;;;;5091137;28;20518;-61
2021/12/02 06:40:05;;;;;;;4.40;3.40;;;4.80;99.90;;;;;;5089658;28;20035;-61
2021/12/02 06:42:31;;;;;;;3.03;2.83;;;4.80;99.90;;;;;;5101962;28;20390;-61
2021/12/02 06:44:57;;;;;;;4.10;3.70;;;4.80;99.90;;;;;;5096935;28;20024;-61
2021/12/02 06:47:29;;;;;;;3.20;2.95;;;4.80;99.90;;;;;;5095413;28;20020;-61
2021/12/02 06:49:56;;;;;;;7.07;4.60;;;4.80;99.90;;;;;;5095214;28;20035;-61
2021/12/02 06:52:23;;;;;;;4.45;2.60;;;4.80;99.90;;;;;;5102464;28;20023;-61
2021/12/02 06:54:49;;;;;;;2.50;2.30;;;4.80;99.90;;;;;;5114350;28;20053;-60
2021/12/02 06:57:16;;;;;;;3.83;3.53;;;4.80;99.90;;;;;;5115766;28;20019;-60
2021/12/02 06:59:42;;;;;;;3.03;2.83;;;4.80;99.90;;;;;;5115367;27;20589;-61
2021/12/02 07:02:08;;;;;;;4.20;3.20;;;4.70;99.90;;;;;;5115735;28;20039;-61
2021/12/02 07:04:34;;;;;;;3.28;2.97;;;4.70;99.90;;;;;;5106502;28;20363;-61
2021/12/02 07:07:00;;;;;;;4.40;3.33;;;4.70;99.90;;;;;;5094316;28;20021;-60
2021/12/02 07:09:25;;;;;;;4.80;3.90;;;4.70;99.90;;;;;;5094601;28;20084;-61
2021/12/02 07:11:51;;;;;;;4.28;3.40;;;4.70;99.90;;;;;;5093350;28;20035;-61
2021/12/02 07:14:18;;;;;;;4.00;3.70;;;4.60;99.90;;;;;;5094065;28;20043;-61
2021/12/02 07:16:44;;;;;;;3.92;3.50;;;4.60;99.90;;;;;;5094327;28;20051;-61
2021/12/02 07:19:10;;;;;;;4.10;3.72;;;4.70;99.90;;;;;;5093054;28;20072;-60
2021/12/02 07:21:39;;;;;;;5.55;5.03;;;4.60;99.90;;;;;;5099356;28;20024;-61
2021/12/02 07:24:06;;;;;;;7.05;3.42;;;4.60;99.90;;;;;;5098546;28;20028;-61
2021/12/02 07:26:40;;;;;;;5.13;3.10;;;4.60;99.90;;;;;;5112586;28;20430;-60
2021/12/02 07:29:10;;;;;;;4.35;3.33;;;4.60;99.90;;;;;;5105016;28;20043;-61
2021/12/02 07:31:37;;;;;;;5.10;3.60;;;4.60;99.90;;;;;;5093302;28;20036;-61
2021/12/02 07:34:03;;;;;;;6.40;4.18;;;4.60;99.90;;;;;;5093230;28;20051;-61
2021/12/02 07:36:31;;;;;;;4.95;3.97;;;4.70;99.90;;;;;;5100995;28;20529;-60
2021/12/02 07:38:57;;;;;;;3.20;2.90;;;4.70;99.90;;;;;;5096216;28;20038;-60
2021/12/02 07:41:22;;;;;;;7.43;5.45;;;4.70;99.90;;;;;;5113161;28;20019;-61
2021/12/02 07:43:48;;;;;;;6.80;4.05;;;4.60;99.90;;;;;;5113363;28;20072;-60
2021/12/02 07:46:14;;;;;;;3.92;3.60;;;4.60;99.90;;;;;;5111833;28;20026;-60
2021/12/02 07:48:39;;;;;;;5.60;3.55;;;4.60;99.90;;;;;;5111603;28;20550;-60
2021/12/02 07:51:17;;;;;;;4.05;2.55;;;4.60;99.90;;;;;;5106811;28;20545;-60
2021/12/02 07:53:45;;;;;;;3.30;3.05;;;4.70;99.90;;;;;;5092296;28;20450;-60
2021/12/02 07:56:16;;;;;;;2.97;2.78;;;4.70;99.90;;;;;;5092896;28;20035;-61
2021/12/02 07:58:44;;;;;;;3.58;3.20;;;4.70;99.90;;;;;;5091708;28;20028;-60
2021/12/02 08:01:12;;;;;;;4.90;4.18;;;4.80;99.90;;;;;;5092406;28;20028;-60
2021/12/02 08:03:44;;;;;;;3.63;3.05;;;4.80;99.90;;;;;;5093000;28;20031;-61
2021/12/02 08:06:14;;;;;;;3.92;3.22;;;4.80;99.90;;;;;;5092558;28;20115;-61
2021/12/02 08:08:45;;;;;;;5.07;3.22;;;4.80;99.90;;;;;;5092143;28;20111;-60
2021/12/02 08:11:12;;;;;;;8.75;3.20;;;5.00;99.90;;;;;;5092352;28;20077;-60
2021/12/02 08:13:37;;;;;;;4.65;3.65;;;5.00;99.90;;;;;;5093563;28;20020;-61
2021/12/02 08:16:05;;;;;;;4.97;3.25;;;5.10;99.90;;;;;;5092120;28;20179;-60
2021/12/02 08:18:31;;;;;;;4.03;3.55;;;5.10;99.90;;;;;;5092048;28;20064;-60
2021/12/02 08:20:58;;;;;;;3.00;2.80;;;5.10;99.90;;;;;;5091961;28;20043;-61
2021/12/02 08:23:24;;;;;;;3.30;3.00;;;5.10;99.90;;;;;;5092650;28;20108;-61
2021/12/02 08:25:50;;;;;;;3.67;2.80;;;5.10;99.90;;;;;;5091371;28;20511;-60
2021/12/02 08:28:16;;;;;;;6.78;2.67;;;5.10;99.90;;;;;;5092564;28;20104;-60
2021/12/02 08:30:41;;;;;;;4.18;2.50;;;5.10;99.90;;;;;;5092492;28;20016;-60
2021/12/02 08:33:08;;;;;;;3.00;2.80;;;5.10;99.90;;;;;;5110240;28;20016;-60
2021/12/02 08:35:35;;;;;;;7.93;5.40;;;5.10;99.90;;;;;;5102052;28;20017;-60
2021/12/02 08:38:07;;;;;;;4.00;3.60;;;5.20;99.90;;;;;;5092187;28;20100;-60
2021/12/02 08:40:35;;;;;;;3.40;3.17;;;5.10;99.90;;;;;;5092018;28;20450;-60
2021/12/02 08:43:03;;;;;;;7.22;4.03;;;5.10;99.90;;;;;;5106263;28;20457;-61
2021/12/02 08:45:30;;;;;;;4.45;3.47;;;5.00;99.90;;;;;;5092303;28;20453;-60
2021/12/02 08:47:57;;;;;;;5.32;3.47;;;5.00;99.90;;;;;;5101337;28;20023;-60
2021/12/02 08:50:23;;;;;;;5.80;3.35;;;5.00;99.90;;;;;;5101804;28;20028;-60
2021/12/02 08:52:50;;;;;;;6.43;3.95;;;5.10;99.90;;;;;;5091846;28;20387;-60
2021/12/02 08:55:18;;;;;;;3.72;3.13;;;5.00;99.90;;;;;;5090628;28;20479;-60
2021/12/02 08:57:45;;;;;;;4.32;2.85;;;5.10;99.90;;;;;;5091901;28;20074;-60
2021/12/02 09:00:13;;;;;;;3.25;2.90;;;5.10;99.90;;;;;;5090539;28;20024;-61
2021/12/02 09:02:39;;;;;;;3.15;2.72;;;5.10;99.90;;;;;;5092018;28;20103;-60
2021/12/02 09:05:05;;;;;;;3.50;3.30;;;5.20;99.90;;;;;;5091540;28;20123;-60
2021/12/02 09:07:32;;;;;;;4.63;4.13;;;5.10;99.90;;;;;;5091688;28;20378;-60
2021/12/02 09:09:57;;;;;;;3.78;2.92;;;5.20;99.90;;;;;;5091311;28;20024;-60
2021/12/02 09:12:23;;;;;;;4.93;3.20;;;5.30;99.90;;;;;;5091623;28;20065;-59
2021/12/02 09:14:50;;;;;;;3.85;3.35;;;5.40;99.90;;;;;;5091449;28;20020;-60
2021/12/02 09:17:16;;;;;;;4.78;2.80;;;5.50;99.90;;;;;;5088961;28;20115;-60
2021/12/02 09:19:42;;;;;;;8.25;4.13;;;5.60;99.90;;;;;;5091310;28;20114;-60
2021/12/02 09:22:08;;;;;;;3.33;2.97;;;5.60;99.90;;;;;;5091117;28;20035;-61
2021/12/02 09:24:33;;;;;;;6.65;2.97;;;5.60;99.90;;;;;;5091558;28;20045;-60
2021/12/02 09:26:59;;;;;;;4.03;2.53;;;5.60;99.90;;;;;;5091167;28;20024;-60
2021/12/02 09:29:25;;;;;;;3.33;2.50;;;5.70;99.90;;;;;;5091090;28;20039;-60
2021/12/02 09:31:52;;;;;;;2.80;2.60;;;5.70;99.90;;;;;;5110938;28;20015;-60
2021/12/02 09:34:18;;;;;;;3.35;2.95;;;5.80;99.90;;;;;;5112659;28;20032;-60
2021/12/02 09:36:46;;;;;;;2.80;2.60;;;5.80;99.90;;;;;;5112526;28;20024;-60
2021/12/02 09:39:14;;;;;;;2.90;2.70;;;5.90;99.90;;;;;;5110749;28;20558;-60
2021/12/02 09:41:41;;;;;;;4.00;2.70;;;5.90;99.90;;;;;;5110851;28;20107;-60
2021/12/02 09:44:07;;;;;;;5.95;3.00;;;6.10;99.90;;;;;;5111777;28;20028;-60
2021/12/02 09:46:34;;;;;;;3.00;2.75;;;6.00;99.90;;;;;;5111458;28;20046;-61
2021/12/02 09:49:03;;;;;;;2.53;2.33;;;6.00;99.90;;;;;;5111852;28;20027;-60
2021/12/02 09:51:40;;;;;;;3.92;2.75;;;6.00;99.90;;;;;;5112194;28;20115;-60
2021/12/02 09:54:12;;;;;;;4.53;2.28;;;6.00;99.90;;;;;;5112139;28;20019;-60
2021/12/02 09:56:40;;;;;;;2.60;2.40;;;5.90;99.90;;;;;;5105440;28;20053;-60
2021/12/02 09:59:10;;;;;;;5.28;2.67;;;5.90;99.90;;;;;;5091498;28;20028;-60
2021/12/02 10:01:49;;;;;;;6.38;2.70;;;5.90;99.90;;;;;;5091730;28;20031;-60
2021/12/02 10:04:15;;;;;;;3.28;2.95;;;5.90;99.90;;;;;;5091844;28;20047;-60
2021/12/02 10:06:43;;;;;;;6.88;3.80;;;5.90;99.90;;;;;;5091853;28;20576;-61
2021/12/02 10:09:38;;;;;;;2.78;2.50;;;6.00;99.90;;;;;;5091485;28;20024;-60
2021/12/02 10:12:12;;;;;;;4.95;2.95;;;6.20;99.90;;;;;;5104048;28;20023;-60
2021/12/02 10:14:39;;;;;;;2.72;2.53;;;6.10;99.90;;;;;;5112417;28;20454;-61
2021/12/02 10:17:17;;;;;;;5.97;3.30;;;6.20;99.90;;;;;;5092759;28;20602;-61
2021/12/02 10:20:13;;;;;;;5.63;3.53;;;6.20;99.90;;;;;;5091778;28;20162;-61
2021/12/02 10:22:40;;;;;;;6.70;3.78;;;6.20;99.90;;;;;;5091437;28;20348;-61
2021/12/02 10:25:06;;;;;;;6.97;4.35;;;6.20;99.90;;;;;;5091727;28;20028;-61
2021/12/02 10:27:32;;;;;;;3.10;2.58;;;6.20;99.90;;;;;;5091867;28;20103;-61
2021/12/02 10:29:58;;;;;;;3.88;3.38;;;6.30;99.90;;;;;;5092536;28;20107;-61
2021/12/02 10:32:30;;;;;;;8.32;4.78;;;6.40;99.90;;;;;;5102436;28;20068;-60
2021/12/02 10:35:01;;;;;;;4.47;3.40;;;6.20;99.90;;;;;;5091524;28;20027;-61
2021/12/02 10:37:33;;;;;;;3.22;2.92;;;6.40;99.90;;;;;;5101319;28;20028;-60
2021/12/02 10:40:19;;;;;;;41.28;18.30;;;6.60;99.90;;;;;;5111040;28;20371;-61
2021/12/02 10:42:46;;;;;;;5.32;4.03;;;6.60;99.90;;;;;;5111500;28;20466;-60
2021/12/02 10:45:26;;;;;;;2.75;2.53;;;6.70;99.90;;;;;;5111912;28;20016;-60
2021/12/02 10:47:54;;;;;;;27.17;13.40;;;6.70;99.90;;;;;;5111781;28;20451;-60
2021/12/02 10:50:21;;;;;;;11.98;5.72;;;6.50;99.90;;;;;;5093708;28;20028;-61
2021/12/02 10:52:47;;;;;;;9.32;5.90;;;6.40;99.90;;;;;;5090301;28;20376;-61
2021/12/02 10:55:22;;;;;;;2.60;2.40;;;6.50;99.90;;;;;;5095469;28;20019;-61
2021/12/02 10:57:56;;;;;;;3.08;2.40;;;6.70;99.90;;;;;;5111359;28;20020;-60
2021/12/02 11:00:24;;;;;;;3.10;2.08;;;6.70;99.90;;;;;;5111214;28;20024;-60
2021/12/02 11:02:53;;;;;;;26.45;10.15;;;6.70;99.90;;;;;;5106445;28;20020;-60
2021/12/02 11:05:25;;;;;;;2.47;2.20;;;6.60;99.90;;;;;;5111045;28;20320;-60
2021/12/02 11:07:57;;;;;;;37.47;17.90;;;6.70;99.90;;;;;;5110825;28;20028;-60
2021/12/02 11:10:24;;;;;;;3.22;2.90;;;6.50;99.90;;;;;;5111576;28;20099;-60
2021/12/02 11:12:55;;;;;;;2.70;2.50;;;6.50;99.90;;;;;;5104984;28;20031;-60
2021/12/02 11:15:26;;;;;;;3.10;2.67;;;6.50;99.90;;;;;;5110874;28;20512;-60
2021/12/02 11:18:07;;;;;;;9.02;3.75;;;6.60;99.90;;;;;;5109649;28;20117;-60
2021/12/02 11:20:38;;;;;;;2.63;2.42;;;6.60;99.90;;;;;;5111057;28;20020;-60
2021/12/02 11:23:09;;;;;;;17.65;6.60;;;6.60;99.90;;;;;;5110823;28;20029;-60
2021/12/02 11:25:39;;;;;;;15.98;8.27;;;6.60;99.90;;;;;;5110882;28;20115;-59
2021/12/02 11:28:07;;;;;;;2.45;2.30;;;6.40;99.90;;;;;;5112092;28;20019;-60
2021/12/02 11:30:35;;;;;;;5.30;4.80;;;6.50;99.90;;;;;;5087673;28;20120;-60
2021/12/02 11:33:03;;;;;;;2.80;2.55;;;6.50;99.90;;;;;;5083549;28;20064;-60
2021/12/02 11:35:40;;;;;;;3.72;2.40;;;6.60;99.90;;;;;;5084944;28;20040;-60
2021/12/02 11:38:07;;;;;;;3.40;2.20;;;6.60;99.90;;;;;;5082491;28;20034;-60
2021/12/02 11:40:39;;;;;;;2.70;2.50;;;6.60;99.90;;;;;;5084824;28;20039;-60
2021/12/02 11:43:06;;;;;;;2.67;2.47;;;6.60;99.90;;;;;;5082976;28;20032;-60
2021/12/02 11:45:40;;;;;;;3.20;2.22;;;6.70;99.90;;;;;;5083738;28;20135;-60
2021/12/02 11:48:06;;;;;;;2.90;2.70;;;6.70;99.90;;;;;;5087225;28;20468;-60
2021/12/02 11:50:31;;;;;;;3.95;2.40;;;6.70;99.90;;;;;;5083918;28;20115;-60
2021/12/02 11:52:58;;;;;;;4.05;3.05;;;6.60;99.90;;;;;;5083822;28;20131;-60
2021/12/02 11:55:28;;;;;;;2.97;2.30;;;6.40;99.90;;;;;;5083525;28;20028;-60
2021/12/02 11:57:54;;;;;;;2.60;2.40;;;6.60;99.90;;;;;;5082459;28;20032;-60
2021/12/02 12:00:22;;;;;;;2.30;2.10;;;6.70;99.90;;;;;;5082414;28;20077;-60
2021/12/02 12:03:00;;;;;;;3.60;2.25;;;6.60;99.90;;;;;;5082967;28;20027;-60
2021/12/02 12:05:48;;;;;;;3.00;2.30;;;6.70;99.90;;;;;;5084464;28;20028;-60
2021/12/02 12:08:35;;;;;;;3.05;2.63;;;6.70;99.90;;;;;;5084671;28;20047;-60
2021/12/02 12:11:22;;;;;;;4.75;2.60;;;6.30;99.90;;;;;;5085025;28;20012;-60
2021/12/02 12:13:51;;;;;;;3.83;3.40;;;6.30;99.90;;;;;;5082272;28;20023;-60
2021/12/02 12:16:30;;;;;;;6.43;2.50;;;6.20;99.90;;;;;;5084137;28;20043;-60
2021/12/02 12:19:13;;;;;;;3.47;2.58;;;6.30;99.90;;;;;;5082513;28;20044;-60
2021/12/02 12:21:41;;;;;;;2.75;2.55;;;6.40;99.90;;;;;;5083544;28;20020;-61
2021/12/02 12:24:08;;;;;;;6.03;2.50;;;6.40;99.90;;;;;;5081875;28;20027;-60
2021/12/02 12:26:40;;;;;;;3.50;2.35;;;6.40;99.90;;;;;;5082127;28;20023;-60
2021/12/02 12:31:33;;;;;;;4.65;2.80;;;6.40;99.90;;;;;;5082763;28;20402;-60
2021/12/02 12:34:01;;;;;;;3.15;2.40;;;6.40;99.90;;;;;;5082947;28;20032;-60
2021/12/02 12:36:46;;;;;;;4.32;2.63;;;6.40;99.90;;;;;;5082648;28;20042;-60
2021/12/02 12:39:24;;;;;;;2.90;2.70;;;6.30;99.90;;;;;;5101446;28;20044;-60
2021/12/02 12:42:17;;;;;;;7.63;2.95;;;6.40;99.90;;;;;;5098505;28;20020;-60
2021/12/02 12:44:51;;;;;;;4.90;2.55;;;6.40;99.90;;;;;;5082461;28;20024;-60
2021/12/02 12:47:18;;;;;;;4.13;2.80;;;6.40;99.90;;;;;;5095424;28;20131;-60
2021/12/02 12:49:47;;;;;;;3.88;2.63;;;6.30;99.90;;;;;;5083209;28;20493;-60
2021/12/02 12:52:18;;;;;;;4.13;3.17;;;6.30;99.90;;;;;;5097581;28;20035;-60
2021/12/02 12:55:16;;;;;;;2.70;2.50;;;6.30;99.90;;;;;;5082652;28;20093;-60
2021/12/02 12:58:14;;;;;;;17.42;8.38;;;6.30;99.90;;;;;;5089873;28;20035;-60
2021/12/02 13:00:45;;;;;;;5.63;3.15;;;6.30;99.90;;;;;;5089476;28;20173;-60
2021/12/02 13:03:26;;;;;;;29.75;14.05;;;6.30;99.90;;;;;;5081990;28;20512;-60
2021/12/02 13:06:02;;;;;;;7.57;5.22;;;6.30;99.90;;;;;;5101708;28;20024;-60
2021/12/02 13:08:35;;;;;;;4.70;2.78;;;6.50;99.90;;;;;;5084971;28;20028;-60
2021/12/02 13:11:14;;;;;;;3.33;3.03;;;6.60;99.90;;;;;;5101762;28;20382;-60
2021/12/02 13:13:40;;;;;;;2.83;2.63;;;6.60;99.90;;;;;;5088769;28;20036;-60
2021/12/02 13:16:19;;;;;;;2.83;2.63;;;6.60;99.90;;;;;;5091953;28;20036;-60
2021/12/02 13:18:45;;;;;;;2.80;2.58;;;6.60;99.90;;;;;;5092549;28;20089;-60